<?xml version="1.0" encoding="UTF-8" standalone="no"?>
<gpx xmlns="http://www.topografix.com/GPX/1/1" creator="GPS TrackMaker" version="1.1" xmlns:xsi="http://www.w3.org/2001/XMLSchema-instance" xsi:schemaLocation="http://www.topografix.com/GPX/1/1 http://www.topografix.com/GPX/1/1/gpx.xsd">
<metadata>
<link href="http://www.gpstm.com">
<text>Geo Studio Tecnology Ltd</text>
</link>
<time>2009-04-09T18:11:16Z</time>
<bounds minlat="49.454527" minlon="6.863687" maxlat="49.477808" maxlon="6.898770"/>
</metadata>
<trk>
<name>grosser horst</name>
<trkseg>
<trkpt lat="49.477143000" lon="6.897311000">
<ele>140.000000</ele>
<time>2009-02-15T13:40:04Z</time>
</trkpt>
<trkpt lat="49.476693000" lon="6.897697000">
<ele>139.000000</ele>
<time>2009-02-15T13:40:10Z</time>
</trkpt>
<trkpt lat="49.476049000" lon="6.898277000">
<ele>137.000000</ele>
<time>2009-02-15T13:40:17Z</time>
</trkpt>
<trkpt lat="49.475791000" lon="6.898105000">
<ele>142.000000</ele>
<time>2009-02-15T13:40:21Z</time>
</trkpt>
<trkpt lat="49.475684000" lon="6.897912000">
<ele>151.000000</ele>
<time>2009-02-15T13:40:23Z</time>
</trkpt>
<trkpt lat="49.475620000" lon="6.897805000">
<ele>156.000000</ele>
<time>2009-02-15T13:40:24Z</time>
</trkpt>
<trkpt lat="49.475555000" lon="6.897676000">
<ele>160.000000</ele>
<time>2009-02-15T13:40:25Z</time>
</trkpt>
<trkpt lat="49.475491000" lon="6.897526000">
<ele>165.000000</ele>
<time>2009-02-15T13:40:26Z</time>
</trkpt>
<trkpt lat="49.475427000" lon="6.897397000">
<ele>168.000000</ele>
<time>2009-02-15T13:40:27Z</time>
</trkpt>
<trkpt lat="49.475362000" lon="6.897268000">
<ele>173.000000</ele>
<time>2009-02-15T13:40:28Z</time>
</trkpt>
<trkpt lat="49.475298000" lon="6.897140000">
<ele>176.000000</ele>
<time>2009-02-15T13:40:29Z</time>
</trkpt>
<trkpt lat="49.475169000" lon="6.897032000">
<ele>182.000000</ele>
<time>2009-02-15T13:40:31Z</time>
</trkpt>
<trkpt lat="49.475083000" lon="6.896882000">
<ele>190.000000</ele>
<time>2009-02-15T13:40:34Z</time>
</trkpt>
<trkpt lat="49.475040000" lon="6.896753000">
<ele>194.000000</ele>
<time>2009-02-15T13:40:36Z</time>
</trkpt>
<trkpt lat="49.474976000" lon="6.896625000">
<ele>197.000000</ele>
<time>2009-02-15T13:40:38Z</time>
</trkpt>
<trkpt lat="49.474933000" lon="6.896496000">
<ele>201.000000</ele>
<time>2009-02-15T13:40:40Z</time>
</trkpt>
<trkpt lat="49.474912000" lon="6.896431000">
<ele>202.000000</ele>
<time>2009-02-15T13:40:41Z</time>
</trkpt>
<trkpt lat="49.474912000" lon="6.896174000">
<ele>207.000000</ele>
<time>2009-02-15T13:40:44Z</time>
</trkpt>
<trkpt lat="49.474976000" lon="6.895831000">
<ele>211.000000</ele>
<time>2009-02-15T13:40:47Z</time>
</trkpt>
<trkpt lat="49.475083000" lon="6.895187000">
<ele>215.000000</ele>
<time>2009-02-15T13:40:52Z</time>
</trkpt>
<trkpt lat="49.475105000" lon="6.895058000">
<ele>215.000000</ele>
<time>2009-02-15T13:40:53Z</time>
</trkpt>
<trkpt lat="49.475062000" lon="6.894844000">
<ele>216.000000</ele>
<time>2009-02-15T13:40:55Z</time>
</trkpt>
<trkpt lat="49.474976000" lon="6.894672000">
<ele>216.000000</ele>
<time>2009-02-15T13:40:58Z</time>
</trkpt>
<trkpt lat="49.474783000" lon="6.894801000">
<ele>221.000000</ele>
<time>2009-02-15T13:41:02Z</time>
</trkpt>
<trkpt lat="49.474697000" lon="6.894994000">
<ele>224.000000</ele>
<time>2009-02-15T13:41:04Z</time>
</trkpt>
<trkpt lat="49.474568000" lon="6.895337000">
<ele>227.000000</ele>
<time>2009-02-15T13:41:07Z</time>
</trkpt>
<trkpt lat="49.474289000" lon="6.895895000">
<ele>230.000000</ele>
<time>2009-02-15T13:41:12Z</time>
</trkpt>
<trkpt lat="49.474247000" lon="6.895938000">
<ele>234.000000</ele>
<time>2009-02-15T13:41:17Z</time>
</trkpt>
<trkpt lat="49.474225000" lon="6.895938000">
<ele>237.000000</ele>
<time>2009-02-15T13:41:25Z</time>
</trkpt>
<trkpt lat="49.474118000" lon="6.895938000">
<ele>238.000000</ele>
<time>2009-02-15T13:41:27Z</time>
</trkpt>
<trkpt lat="49.473968000" lon="6.895959000">
<ele>239.000000</ele>
<time>2009-02-15T13:41:29Z</time>
</trkpt>
<trkpt lat="49.473646000" lon="6.895616000">
<ele>241.000000</ele>
<time>2009-02-15T13:41:34Z</time>
</trkpt>
<trkpt lat="49.473560000" lon="6.895509000">
<ele>242.000000</ele>
<time>2009-02-15T13:41:35Z</time>
</trkpt>
<trkpt lat="49.473259000" lon="6.895423000">
<ele>244.000000</ele>
<time>2009-02-15T13:41:39Z</time>
</trkpt>
<trkpt lat="49.473066000" lon="6.895487000">
<ele>245.000000</ele>
<time>2009-02-15T13:41:41Z</time>
</trkpt>
<trkpt lat="49.472637000" lon="6.895165000">
<ele>251.000000</ele>
<time>2009-02-15T13:41:46Z</time>
</trkpt>
<trkpt lat="49.472616000" lon="6.894886000">
<ele>253.000000</ele>
<time>2009-02-15T13:41:48Z</time>
</trkpt>
<trkpt lat="49.472616000" lon="6.894243000">
<ele>259.000000</ele>
<time>2009-02-15T13:41:52Z</time>
</trkpt>
<trkpt lat="49.472616000" lon="6.893942000">
<ele>261.000000</ele>
<time>2009-02-15T13:41:54Z</time>
</trkpt>
<trkpt lat="49.472487000" lon="6.893513000">
<ele>267.000000</ele>
<time>2009-02-15T13:41:57Z</time>
</trkpt>
<trkpt lat="49.472294000" lon="6.893063000">
<ele>271.000000</ele>
<time>2009-02-15T13:42:00Z</time>
</trkpt>
<trkpt lat="49.472144000" lon="6.892762000">
<ele>273.000000</ele>
<time>2009-02-15T13:42:02Z</time>
</trkpt>
<trkpt lat="49.471843000" lon="6.892440000">
<ele>277.000000</ele>
<time>2009-02-15T13:42:05Z</time>
</trkpt>
<trkpt lat="49.471457000" lon="6.892354000">
<ele>280.000000</ele>
<time>2009-02-15T13:42:08Z</time>
</trkpt>
<trkpt lat="49.470899000" lon="6.892333000">
<ele>283.000000</ele>
<time>2009-02-15T13:42:12Z</time>
</trkpt>
<trkpt lat="49.470491000" lon="6.892312000">
<ele>285.000000</ele>
<time>2009-02-15T13:42:15Z</time>
</trkpt>
<trkpt lat="49.470084000" lon="6.892204000">
<ele>289.000000</ele>
<time>2009-02-15T13:42:18Z</time>
</trkpt>
<trkpt lat="49.469526000" lon="6.892054000">
<ele>291.000000</ele>
<time>2009-02-15T13:42:22Z</time>
</trkpt>
<trkpt lat="49.469376000" lon="6.892054000">
<ele>293.000000</ele>
<time>2009-02-15T13:42:23Z</time>
</trkpt>
<trkpt lat="49.468946000" lon="6.892161000">
<ele>297.000000</ele>
<time>2009-02-15T13:42:26Z</time>
</trkpt>
<trkpt lat="49.468367000" lon="6.892333000">
<ele>302.000000</ele>
<time>2009-02-15T13:42:30Z</time>
</trkpt>
<trkpt lat="49.468067000" lon="6.892440000">
<ele>304.000000</ele>
<time>2009-02-15T13:42:32Z</time>
</trkpt>
<trkpt lat="49.467595000" lon="6.892569000">
<ele>306.000000</ele>
<time>2009-02-15T13:42:35Z</time>
</trkpt>
<trkpt lat="49.467423000" lon="6.892591000">
<ele>307.000000</ele>
<time>2009-02-15T13:42:36Z</time>
</trkpt>
<trkpt lat="49.466801000" lon="6.892419000">
<ele>311.000000</ele>
<time>2009-02-15T13:42:40Z</time>
</trkpt>
<trkpt lat="49.466479000" lon="6.892247000">
<ele>314.000000</ele>
<time>2009-02-15T13:42:42Z</time>
</trkpt>
<trkpt lat="49.465814000" lon="6.892247000">
<ele>320.000000</ele>
<time>2009-02-15T13:42:46Z</time>
</trkpt>
<trkpt lat="49.465492000" lon="6.892419000">
<ele>322.000000</ele>
<time>2009-02-15T13:42:48Z</time>
</trkpt>
<trkpt lat="49.464998000" lon="6.892741000">
<ele>327.000000</ele>
<time>2009-02-15T13:42:51Z</time>
</trkpt>
<trkpt lat="49.464483000" lon="6.893041000">
<ele>328.000000</ele>
<time>2009-02-15T13:42:54Z</time>
</trkpt>
<trkpt lat="49.463325000" lon="6.892869000">
<ele>327.000000</ele>
<time>2009-02-15T13:43:01Z</time>
</trkpt>
<trkpt lat="49.462895000" lon="6.892376000">
<ele>324.000000</ele>
<time>2009-02-15T13:43:04Z</time>
</trkpt>
<trkpt lat="49.462402000" lon="6.891561000">
<ele>319.000000</ele>
<time>2009-02-15T13:43:08Z</time>
</trkpt>
<trkpt lat="49.462144000" lon="6.891131000">
<ele>316.000000</ele>
<time>2009-02-15T13:43:10Z</time>
</trkpt>
<trkpt lat="49.461780000" lon="6.890531000">
<ele>311.000000</ele>
<time>2009-02-15T13:43:13Z</time>
</trkpt>
<trkpt lat="49.461522000" lon="6.890166000">
<ele>308.000000</ele>
<time>2009-02-15T13:43:15Z</time>
</trkpt>
<trkpt lat="49.461286000" lon="6.889865000">
<ele>305.000000</ele>
<time>2009-02-15T13:43:17Z</time>
</trkpt>
<trkpt lat="49.460535000" lon="6.889501000">
<ele>300.000000</ele>
<time>2009-02-15T13:43:22Z</time>
</trkpt>
<trkpt lat="49.460106000" lon="6.889586000">
<ele>295.000000</ele>
<time>2009-02-15T13:43:25Z</time>
</trkpt>
<trkpt lat="49.459977000" lon="6.889651000">
<ele>295.000000</ele>
<time>2009-02-15T13:43:26Z</time>
</trkpt>
<trkpt lat="49.459698000" lon="6.889844000">
<ele>293.000000</ele>
<time>2009-02-15T13:43:29Z</time>
</trkpt>
<trkpt lat="49.459569000" lon="6.889973000">
<ele>292.000000</ele>
<time>2009-02-15T13:43:32Z</time>
</trkpt>
<trkpt lat="49.459527000" lon="6.889758000">
<ele>292.000000</ele>
<time>2009-02-15T13:43:37Z</time>
</trkpt>
<trkpt lat="49.459891000" lon="6.888342000">
<ele>294.000000</ele>
<time>2009-02-15T13:43:48Z</time>
</trkpt>
<trkpt lat="49.459891000" lon="6.888235000">
<ele>295.000000</ele>
<time>2009-02-15T13:43:56Z</time>
</trkpt>
<trkpt lat="49.459913000" lon="6.888213000">
<ele>295.000000</ele>
<time>2009-02-15T13:44:03Z</time>
</trkpt>
<trkpt lat="49.460063000" lon="6.887569000">
<ele>297.000000</ele>
<time>2009-02-15T13:44:12Z</time>
</trkpt>
<trkpt lat="49.460106000" lon="6.887462000">
<ele>297.000000</ele>
<time>2009-02-15T13:44:14Z</time>
</trkpt>
<trkpt lat="49.460192000" lon="6.887333000">
<ele>298.000000</ele>
<time>2009-02-15T13:44:22Z</time>
</trkpt>
<trkpt lat="49.460149000" lon="6.887290000">
<ele>299.000000</ele>
<time>2009-02-15T13:44:34Z</time>
</trkpt>
<trkpt lat="49.460149000" lon="6.887269000">
<ele>299.000000</ele>
<time>2009-02-15T13:44:35Z</time>
</trkpt>
<trkpt lat="49.460170000" lon="6.887162000">
<ele>300.000000</ele>
<time>2009-02-15T13:44:41Z</time>
</trkpt>
<trkpt lat="49.460170000" lon="6.886775000">
<ele>298.000000</ele>
<time>2009-02-15T13:44:59Z</time>
</trkpt>
<trkpt lat="49.460170000" lon="6.886690000">
<ele>302.000000</ele>
<time>2009-02-15T13:45:04Z</time>
</trkpt>
<trkpt lat="49.460170000" lon="6.886668000">
<ele>302.000000</ele>
<time>2009-02-15T13:45:05Z</time>
</trkpt>
<trkpt lat="49.460170000" lon="6.886604000">
<ele>300.000000</ele>
<time>2009-02-15T13:45:08Z</time>
</trkpt>
<trkpt lat="49.460170000" lon="6.886561000">
<ele>301.000000</ele>
<time>2009-02-15T13:45:10Z</time>
</trkpt>
<trkpt lat="49.460149000" lon="6.886175000">
<ele>304.000000</ele>
<time>2009-02-15T13:45:32Z</time>
</trkpt>
<trkpt lat="49.460213000" lon="6.885767000">
<ele>307.000000</ele>
<time>2009-02-15T13:45:55Z</time>
</trkpt>
<trkpt lat="49.460363000" lon="6.885338000">
<ele>308.000000</ele>
<time>2009-02-15T13:46:19Z</time>
</trkpt>
<trkpt lat="49.460471000" lon="6.884952000">
<ele>310.000000</ele>
<time>2009-02-15T13:46:41Z</time>
</trkpt>
<trkpt lat="49.460428000" lon="6.884608000">
<ele>313.000000</ele>
<time>2009-02-15T13:47:01Z</time>
</trkpt>
<trkpt lat="49.460342000" lon="6.884201000">
<ele>315.000000</ele>
<time>2009-02-15T13:47:23Z</time>
</trkpt>
<trkpt lat="49.460320000" lon="6.884158000">
<ele>315.000000</ele>
<time>2009-02-15T13:47:25Z</time>
</trkpt>
<trkpt lat="49.460320000" lon="6.884072000">
<ele>315.000000</ele>
<time>2009-02-15T13:47:30Z</time>
</trkpt>
<trkpt lat="49.460192000" lon="6.883621000">
<ele>315.000000</ele>
<time>2009-02-15T13:47:56Z</time>
</trkpt>
<trkpt lat="49.460149000" lon="6.883471000">
<ele>318.000000</ele>
<time>2009-02-15T13:48:05Z</time>
</trkpt>
<trkpt lat="49.460063000" lon="6.883171000">
<ele>316.000000</ele>
<time>2009-02-15T13:48:22Z</time>
</trkpt>
<trkpt lat="49.459999000" lon="6.882784000">
<ele>318.000000</ele>
<time>2009-02-15T13:48:41Z</time>
</trkpt>
<trkpt lat="49.460020000" lon="6.882441000">
<ele>318.000000</ele>
<time>2009-02-15T13:49:00Z</time>
</trkpt>
<trkpt lat="49.459977000" lon="6.882119000">
<ele>320.000000</ele>
<time>2009-02-15T13:49:19Z</time>
</trkpt>
<trkpt lat="49.459977000" lon="6.881990000">
<ele>324.000000</ele>
<time>2009-02-15T13:49:26Z</time>
</trkpt>
<trkpt lat="49.459956000" lon="6.881926000">
<ele>319.000000</ele>
<time>2009-02-15T13:49:29Z</time>
</trkpt>
<trkpt lat="49.459956000" lon="6.881926000">
<ele>325.000000</ele>
<time>2009-02-15T13:49:30Z</time>
</trkpt>
<trkpt lat="49.459956000" lon="6.881883000">
<ele>321.000000</ele>
<time>2009-02-15T13:49:32Z</time>
</trkpt>
<trkpt lat="49.459934000" lon="6.881647000">
<ele>324.000000</ele>
<time>2009-02-15T13:49:43Z</time>
</trkpt>
<trkpt lat="49.459913000" lon="6.881261000">
<ele>326.000000</ele>
<time>2009-02-15T13:50:06Z</time>
</trkpt>
<trkpt lat="49.460084000" lon="6.880703000">
<ele>327.000000</ele>
<time>2009-02-15T13:50:43Z</time>
</trkpt>
<trkpt lat="49.460299000" lon="6.880381000">
<ele>327.000000</ele>
<time>2009-02-15T13:51:24Z</time>
</trkpt>
<trkpt lat="49.460535000" lon="6.879952000">
<ele>328.000000</ele>
<time>2009-02-15T13:52:02Z</time>
</trkpt>
<trkpt lat="49.460707000" lon="6.879094000">
<ele>328.000000</ele>
<time>2009-02-15T13:52:38Z</time>
</trkpt>
<trkpt lat="49.460793000" lon="6.878235000">
<ele>328.000000</ele>
<time>2009-02-15T13:53:12Z</time>
</trkpt>
<trkpt lat="49.460707000" lon="6.877699000">
<ele>328.000000</ele>
<time>2009-02-15T13:53:42Z</time>
</trkpt>
<trkpt lat="49.460599000" lon="6.877356000">
<ele>327.000000</ele>
<time>2009-02-15T13:54:03Z</time>
</trkpt>
<trkpt lat="49.460492000" lon="6.876905000">
<ele>328.000000</ele>
<time>2009-02-15T13:54:28Z</time>
</trkpt>
<trkpt lat="49.460342000" lon="6.876240000">
<ele>327.000000</ele>
<time>2009-02-15T13:54:54Z</time>
</trkpt>
<trkpt lat="49.460278000" lon="6.875768000">
<ele>327.000000</ele>
<time>2009-02-15T13:55:15Z</time>
</trkpt>
<trkpt lat="49.460170000" lon="6.875274000">
<ele>325.000000</ele>
<time>2009-02-15T13:55:37Z</time>
</trkpt>
<trkpt lat="49.460063000" lon="6.874759000">
<ele>323.000000</ele>
<time>2009-02-15T13:56:02Z</time>
</trkpt>
<trkpt lat="49.459870000" lon="6.874201000">
<ele>321.000000</ele>
<time>2009-02-15T13:56:27Z</time>
</trkpt>
<trkpt lat="49.459741000" lon="6.873686000">
<ele>320.000000</ele>
<time>2009-02-15T13:56:53Z</time>
</trkpt>
<trkpt lat="49.459720000" lon="6.873622000">
<ele>318.000000</ele>
<time>2009-02-15T13:56:57Z</time>
</trkpt>
<trkpt lat="49.459612000" lon="6.873171000">
<ele>318.000000</ele>
<time>2009-02-15T13:57:18Z</time>
</trkpt>
<trkpt lat="49.459462000" lon="6.872592000">
<ele>316.000000</ele>
<time>2009-02-15T13:57:47Z</time>
</trkpt>
<trkpt lat="49.459333000" lon="6.872120000">
<ele>315.000000</ele>
<time>2009-02-15T13:58:08Z</time>
</trkpt>
<trkpt lat="49.459376000" lon="6.871519000">
<ele>313.000000</ele>
<time>2009-02-15T13:58:35Z</time>
</trkpt>
<trkpt lat="49.459376000" lon="6.870940000">
<ele>312.000000</ele>
<time>2009-02-15T13:58:58Z</time>
</trkpt>
<trkpt lat="49.459226000" lon="6.870403000">
<ele>311.000000</ele>
<time>2009-02-15T13:59:23Z</time>
</trkpt>
<trkpt lat="49.458947000" lon="6.870017000">
<ele>312.000000</ele>
<time>2009-02-15T13:59:46Z</time>
</trkpt>
<trkpt lat="49.458883000" lon="6.869953000">
<ele>311.000000</ele>
<time>2009-02-15T13:59:52Z</time>
</trkpt>
<trkpt lat="49.458647000" lon="6.869652000">
<ele>310.000000</ele>
<time>2009-02-15T14:00:11Z</time>
</trkpt>
<trkpt lat="49.458346000" lon="6.869309000">
<ele>310.000000</ele>
<time>2009-02-15T14:00:36Z</time>
</trkpt>
<trkpt lat="49.458067000" lon="6.869009000">
<ele>308.000000</ele>
<time>2009-02-15T14:00:58Z</time>
</trkpt>
<trkpt lat="49.457788000" lon="6.868558000">
<ele>307.000000</ele>
<time>2009-02-15T14:01:26Z</time>
</trkpt>
<trkpt lat="49.457617000" lon="6.868236000">
<ele>306.000000</ele>
<time>2009-02-15T14:01:45Z</time>
</trkpt>
<trkpt lat="49.457381000" lon="6.867850000">
<ele>305.000000</ele>
<time>2009-02-15T14:02:12Z</time>
</trkpt>
<trkpt lat="49.457188000" lon="6.867507000">
<ele>304.000000</ele>
<time>2009-02-15T14:02:31Z</time>
</trkpt>
<trkpt lat="49.456866000" lon="6.867292000">
<ele>302.000000</ele>
<time>2009-02-15T14:02:53Z</time>
</trkpt>
<trkpt lat="49.456522000" lon="6.867034000">
<ele>301.000000</ele>
<time>2009-02-15T14:03:19Z</time>
</trkpt>
<trkpt lat="49.456244000" lon="6.866863000">
<ele>298.000000</ele>
<time>2009-02-15T14:03:42Z</time>
</trkpt>
<trkpt lat="49.456007000" lon="6.866691000">
<ele>297.000000</ele>
<time>2009-02-15T14:04:06Z</time>
</trkpt>
<trkpt lat="49.455664000" lon="6.866434000">
<ele>296.000000</ele>
<time>2009-02-15T14:04:30Z</time>
</trkpt>
<trkpt lat="49.455428000" lon="6.866047000">
<ele>296.000000</ele>
<time>2009-02-15T14:04:52Z</time>
</trkpt>
<trkpt lat="49.455192000" lon="6.865683000">
<ele>296.000000</ele>
<time>2009-02-15T14:05:12Z</time>
</trkpt>
<trkpt lat="49.454978000" lon="6.865382000">
<ele>295.000000</ele>
<time>2009-02-15T14:05:31Z</time>
</trkpt>
<trkpt lat="49.454870000" lon="6.865211000">
<ele>295.000000</ele>
<time>2009-02-15T14:05:41Z</time>
</trkpt>
<trkpt lat="49.454741000" lon="6.864846000">
<ele>293.000000</ele>
<time>2009-02-15T14:06:00Z</time>
</trkpt>
<trkpt lat="49.454634000" lon="6.864309000">
<ele>291.000000</ele>
<time>2009-02-15T14:06:25Z</time>
</trkpt>
<trkpt lat="49.454527000" lon="6.863816000">
<ele>292.000000</ele>
<time>2009-02-15T14:06:50Z</time>
</trkpt>
<trkpt lat="49.454699000" lon="6.863687000">
<ele>295.000000</ele>
<time>2009-02-15T14:07:08Z</time>
</trkpt>
<trkpt lat="49.454892000" lon="6.863687000">
<ele>297.000000</ele>
<time>2009-02-15T14:07:27Z</time>
</trkpt>
<trkpt lat="49.455278000" lon="6.864073000">
<ele>300.000000</ele>
<time>2009-02-15T14:07:56Z</time>
</trkpt>
<trkpt lat="49.455643000" lon="6.864395000">
<ele>302.000000</ele>
<time>2009-02-15T14:08:22Z</time>
</trkpt>
<trkpt lat="49.456072000" lon="6.864889000">
<ele>306.000000</ele>
<time>2009-02-15T14:08:59Z</time>
</trkpt>
<trkpt lat="49.456351000" lon="6.865189000">
<ele>306.000000</ele>
<time>2009-02-15T14:09:24Z</time>
</trkpt>
<trkpt lat="49.456458000" lon="6.865318000">
<ele>307.000000</ele>
<time>2009-02-15T14:09:35Z</time>
</trkpt>
<trkpt lat="49.456909000" lon="6.865318000">
<ele>311.000000</ele>
<time>2009-02-15T14:10:07Z</time>
</trkpt>
<trkpt lat="49.457273000" lon="6.865597000">
<ele>314.000000</ele>
<time>2009-02-15T14:10:39Z</time>
</trkpt>
<trkpt lat="49.457574000" lon="6.865768000">
<ele>317.000000</ele>
<time>2009-02-15T14:11:07Z</time>
</trkpt>
<trkpt lat="49.457939000" lon="6.866069000">
<ele>319.000000</ele>
<time>2009-02-15T14:11:44Z</time>
</trkpt>
<trkpt lat="49.458218000" lon="6.866562000">
<ele>322.000000</ele>
<time>2009-02-15T14:12:14Z</time>
</trkpt>
<trkpt lat="49.458325000" lon="6.866670000">
<ele>323.000000</ele>
<time>2009-02-15T14:12:25Z</time>
</trkpt>
<trkpt lat="49.458539000" lon="6.866798000">
<ele>323.000000</ele>
<time>2009-02-15T14:12:45Z</time>
</trkpt>
<trkpt lat="49.458818000" lon="6.867163000">
<ele>324.000000</ele>
<time>2009-02-15T14:13:11Z</time>
</trkpt>
<trkpt lat="49.459054000" lon="6.867507000">
<ele>326.000000</ele>
<time>2009-02-15T14:13:38Z</time>
</trkpt>
<trkpt lat="49.459291000" lon="6.867936000">
<ele>327.000000</ele>
<time>2009-02-15T14:14:04Z</time>
</trkpt>
<trkpt lat="49.459484000" lon="6.868429000">
<ele>327.000000</ele>
<time>2009-02-15T14:14:32Z</time>
</trkpt>
<trkpt lat="49.459677000" lon="6.868901000">
<ele>328.000000</ele>
<time>2009-02-15T14:14:58Z</time>
</trkpt>
<trkpt lat="49.459698000" lon="6.868966000">
<ele>329.000000</ele>
<time>2009-02-15T14:15:02Z</time>
</trkpt>
<trkpt lat="49.459827000" lon="6.869459000">
<ele>330.000000</ele>
<time>2009-02-15T14:15:29Z</time>
</trkpt>
<trkpt lat="49.459913000" lon="6.869931000">
<ele>330.000000</ele>
<time>2009-02-15T14:15:52Z</time>
</trkpt>
<trkpt lat="49.459977000" lon="6.870425000">
<ele>331.000000</ele>
<time>2009-02-15T14:16:14Z</time>
</trkpt>
<trkpt lat="49.460063000" lon="6.870961000">
<ele>331.000000</ele>
<time>2009-02-15T14:16:37Z</time>
</trkpt>
<trkpt lat="49.460149000" lon="6.871412000">
<ele>331.000000</ele>
<time>2009-02-15T14:16:58Z</time>
</trkpt>
<trkpt lat="49.460063000" lon="6.872056000">
<ele>331.000000</ele>
<time>2009-02-15T14:17:27Z</time>
</trkpt>
<trkpt lat="49.460042000" lon="6.872613000">
<ele>332.000000</ele>
<time>2009-02-15T14:17:57Z</time>
</trkpt>
<trkpt lat="49.460020000" lon="6.873236000">
<ele>331.000000</ele>
<time>2009-02-15T14:18:24Z</time>
</trkpt>
<trkpt lat="49.460020000" lon="6.873879000">
<ele>331.000000</ele>
<time>2009-02-15T14:18:52Z</time>
</trkpt>
<trkpt lat="49.460084000" lon="6.874545000">
<ele>331.000000</ele>
<time>2009-02-15T14:19:22Z</time>
</trkpt>
<trkpt lat="49.460192000" lon="6.875188000">
<ele>331.000000</ele>
<time>2009-02-15T14:19:49Z</time>
</trkpt>
<trkpt lat="49.460299000" lon="6.876326000">
<ele>332.000000</ele>
<time>2009-02-15T14:20:42Z</time>
</trkpt>
<trkpt lat="49.460578000" lon="6.877227000">
<ele>333.000000</ele>
<time>2009-02-15T14:21:26Z</time>
</trkpt>
<trkpt lat="49.460878000" lon="6.878171000">
<ele>333.000000</ele>
<time>2009-02-15T14:22:23Z</time>
</trkpt>
<trkpt lat="49.460943000" lon="6.878793000">
<ele>333.000000</ele>
<time>2009-02-15T14:22:52Z</time>
</trkpt>
<trkpt lat="49.460943000" lon="6.879308000">
<ele>333.000000</ele>
<time>2009-02-15T14:23:20Z</time>
</trkpt>
<trkpt lat="49.460964000" lon="6.879566000">
<ele>337.000000</ele>
<time>2009-02-15T14:23:35Z</time>
</trkpt>
<trkpt lat="49.460986000" lon="6.879609000">
<ele>339.000000</ele>
<time>2009-02-15T14:23:52Z</time>
</trkpt>
<trkpt lat="49.461050000" lon="6.879394000">
<ele>343.000000</ele>
<time>2009-02-15T14:24:12Z</time>
</trkpt>
<trkpt lat="49.461093000" lon="6.879008000">
<ele>345.000000</ele>
<time>2009-02-15T14:24:33Z</time>
</trkpt>
<trkpt lat="49.461114000" lon="6.878579000">
<ele>347.000000</ele>
<time>2009-02-15T14:24:48Z</time>
</trkpt>
<trkpt lat="49.461050000" lon="6.878064000">
<ele>350.000000</ele>
<time>2009-02-15T14:25:20Z</time>
</trkpt>
<trkpt lat="49.461071000" lon="6.877999000">
<ele>351.000000</ele>
<time>2009-02-15T14:25:24Z</time>
</trkpt>
<trkpt lat="49.461029000" lon="6.877334000">
<ele>353.000000</ele>
<time>2009-02-15T14:25:48Z</time>
</trkpt>
<trkpt lat="49.460986000" lon="6.876841000">
<ele>356.000000</ele>
<time>2009-02-15T14:26:13Z</time>
</trkpt>
<trkpt lat="49.461029000" lon="6.876347000">
<ele>359.000000</ele>
<time>2009-02-15T14:26:38Z</time>
</trkpt>
<trkpt lat="49.461007000" lon="6.875832000">
<ele>363.000000</ele>
<time>2009-02-15T14:27:05Z</time>
</trkpt>
<trkpt lat="49.460943000" lon="6.875424000">
<ele>365.000000</ele>
<time>2009-02-15T14:27:29Z</time>
</trkpt>
<trkpt lat="49.460943000" lon="6.875231000">
<ele>370.000000</ele>
<time>2009-02-15T14:27:40Z</time>
</trkpt>
<trkpt lat="49.460943000" lon="6.875210000">
<ele>366.000000</ele>
<time>2009-02-15T14:27:41Z</time>
</trkpt>
<trkpt lat="49.460878000" lon="6.874695000">
<ele>369.000000</ele>
<time>2009-02-15T14:28:06Z</time>
</trkpt>
<trkpt lat="49.460835000" lon="6.874180000">
<ele>372.000000</ele>
<time>2009-02-15T14:28:33Z</time>
</trkpt>
<trkpt lat="49.460814000" lon="6.873622000">
<ele>375.000000</ele>
<time>2009-02-15T14:29:03Z</time>
</trkpt>
<trkpt lat="49.460835000" lon="6.873021000">
<ele>378.000000</ele>
<time>2009-02-15T14:29:36Z</time>
</trkpt>
<trkpt lat="49.460835000" lon="6.872871000">
<ele>379.000000</ele>
<time>2009-02-15T14:29:47Z</time>
</trkpt>
<trkpt lat="49.461050000" lon="6.872549000">
<ele>380.000000</ele>
<time>2009-02-15T14:29:56Z</time>
</trkpt>
<trkpt lat="49.460814000" lon="6.871905000">
<ele>380.000000</ele>
<time>2009-02-15T14:30:12Z</time>
</trkpt>
<trkpt lat="49.460857000" lon="6.871819000">
<ele>381.000000</ele>
<time>2009-02-15T14:30:19Z</time>
</trkpt>
<trkpt lat="49.461179000" lon="6.871669000">
<ele>382.000000</ele>
<time>2009-02-15T14:30:36Z</time>
</trkpt>
<trkpt lat="49.461629000" lon="6.871905000">
<ele>386.000000</ele>
<time>2009-02-15T14:31:12Z</time>
</trkpt>
<trkpt lat="49.462059000" lon="6.872013000">
<ele>387.000000</ele>
<time>2009-02-15T14:31:44Z</time>
</trkpt>
<trkpt lat="49.462273000" lon="6.872077000">
<ele>389.000000</ele>
<time>2009-02-15T14:32:03Z</time>
</trkpt>
<trkpt lat="49.462595000" lon="6.872141000">
<ele>390.000000</ele>
<time>2009-02-15T14:32:29Z</time>
</trkpt>
<trkpt lat="49.462745000" lon="6.871905000">
<ele>393.000000</ele>
<time>2009-02-15T14:32:51Z</time>
</trkpt>
<trkpt lat="49.462788000" lon="6.871541000">
<ele>394.000000</ele>
<time>2009-02-15T14:33:10Z</time>
</trkpt>
<trkpt lat="49.462874000" lon="6.871133000">
<ele>392.000000</ele>
<time>2009-02-15T14:33:31Z</time>
</trkpt>
<trkpt lat="49.462767000" lon="6.870661000">
<ele>393.000000</ele>
<time>2009-02-15T14:33:55Z</time>
</trkpt>
<trkpt lat="49.462659000" lon="6.870253000">
<ele>393.000000</ele>
<time>2009-02-15T14:34:17Z</time>
</trkpt>
<trkpt lat="49.462595000" lon="6.869824000">
<ele>393.000000</ele>
<time>2009-02-15T14:34:38Z</time>
</trkpt>
<trkpt lat="49.462445000" lon="6.869352000">
<ele>393.000000</ele>
<time>2009-02-15T14:35:07Z</time>
</trkpt>
<trkpt lat="49.462337000" lon="6.868901000">
<ele>394.000000</ele>
<time>2009-02-15T14:35:30Z</time>
</trkpt>
<trkpt lat="49.462209000" lon="6.868408000">
<ele>394.000000</ele>
<time>2009-02-15T14:35:55Z</time>
</trkpt>
<trkpt lat="49.462059000" lon="6.867807000">
<ele>393.000000</ele>
<time>2009-02-15T14:36:22Z</time>
</trkpt>
<trkpt lat="49.461908000" lon="6.867292000">
<ele>392.000000</ele>
<time>2009-02-15T14:36:50Z</time>
</trkpt>
<trkpt lat="49.461801000" lon="6.866820000">
<ele>392.000000</ele>
<time>2009-02-15T14:37:14Z</time>
</trkpt>
<trkpt lat="49.461694000" lon="6.866348000">
<ele>392.000000</ele>
<time>2009-02-15T14:37:37Z</time>
</trkpt>
<trkpt lat="49.461608000" lon="6.865940000">
<ele>391.000000</ele>
<time>2009-02-15T14:37:57Z</time>
</trkpt>
<trkpt lat="49.461522000" lon="6.865468000">
<ele>391.000000</ele>
<time>2009-02-15T14:38:21Z</time>
</trkpt>
<trkpt lat="49.461737000" lon="6.865404000">
<ele>393.000000</ele>
<time>2009-02-15T14:38:40Z</time>
</trkpt>
<trkpt lat="49.462016000" lon="6.865425000">
<ele>395.000000</ele>
<time>2009-02-15T14:39:04Z</time>
</trkpt>
<trkpt lat="49.462316000" lon="6.865447000">
<ele>396.000000</ele>
<time>2009-02-15T14:39:28Z</time>
</trkpt>
<trkpt lat="49.462616000" lon="6.865468000">
<ele>397.000000</ele>
<time>2009-02-15T14:39:52Z</time>
</trkpt>
<trkpt lat="49.462895000" lon="6.865489000">
<ele>394.000000</ele>
<time>2009-02-15T14:40:15Z</time>
</trkpt>
<trkpt lat="49.463110000" lon="6.865489000">
<ele>392.000000</ele>
<time>2009-02-15T14:40:31Z</time>
</trkpt>
<trkpt lat="49.463367000" lon="6.865447000">
<ele>389.000000</ele>
<time>2009-02-15T14:40:50Z</time>
</trkpt>
<trkpt lat="49.463603000" lon="6.865532000">
<ele>386.000000</ele>
<time>2009-02-15T14:41:10Z</time>
</trkpt>
<trkpt lat="49.463904000" lon="6.865554000">
<ele>384.000000</ele>
<time>2009-02-15T14:41:36Z</time>
</trkpt>
<trkpt lat="49.464033000" lon="6.865554000">
<ele>380.000000</ele>
<time>2009-02-15T14:41:50Z</time>
</trkpt>
<trkpt lat="49.464269000" lon="6.865597000">
<ele>377.000000</ele>
<time>2009-02-15T14:42:08Z</time>
</trkpt>
<trkpt lat="49.464440000" lon="6.865747000">
<ele>378.000000</ele>
<time>2009-02-15T14:42:28Z</time>
</trkpt>
<trkpt lat="49.464633000" lon="6.865919000">
<ele>380.000000</ele>
<time>2009-02-15T14:42:48Z</time>
</trkpt>
<trkpt lat="49.464934000" lon="6.865919000">
<ele>380.000000</ele>
<time>2009-02-15T14:43:08Z</time>
</trkpt>
<trkpt lat="49.465320000" lon="6.865683000">
<ele>381.000000</ele>
<time>2009-02-15T14:43:51Z</time>
</trkpt>
<trkpt lat="49.465320000" lon="6.865597000">
<ele>381.000000</ele>
<time>2009-02-15T14:43:56Z</time>
</trkpt>
<trkpt lat="49.465384000" lon="6.865125000">
<ele>378.000000</ele>
<time>2009-02-15T14:44:18Z</time>
</trkpt>
<trkpt lat="49.465642000" lon="6.864846000">
<ele>375.000000</ele>
<time>2009-02-15T14:44:39Z</time>
</trkpt>
<trkpt lat="49.465771000" lon="6.864781000">
<ele>372.000000</ele>
<time>2009-02-15T14:44:52Z</time>
</trkpt>
<trkpt lat="49.465835000" lon="6.864760000">
<ele>371.000000</ele>
<time>2009-02-15T14:44:57Z</time>
</trkpt>
<trkpt lat="49.466007000" lon="6.864953000">
<ele>367.000000</ele>
<time>2009-02-15T14:45:15Z</time>
</trkpt>
<trkpt lat="49.466050000" lon="6.864996000">
<ele>366.000000</ele>
<time>2009-02-15T14:45:19Z</time>
</trkpt>
<trkpt lat="49.466050000" lon="6.865425000">
<ele>362.000000</ele>
<time>2009-02-15T14:45:38Z</time>
</trkpt>
<trkpt lat="49.466028000" lon="6.866026000">
<ele>362.000000</ele>
<time>2009-02-15T14:46:09Z</time>
</trkpt>
<trkpt lat="49.466050000" lon="6.866798000">
<ele>362.000000</ele>
<time>2009-02-15T14:47:01Z</time>
</trkpt>
<trkpt lat="49.465814000" lon="6.867270000">
<ele>363.000000</ele>
<time>2009-02-15T14:47:46Z</time>
</trkpt>
<trkpt lat="49.465878000" lon="6.867292000">
<ele>363.000000</ele>
<time>2009-02-15T14:47:55Z</time>
</trkpt>
<trkpt lat="49.466243000" lon="6.867313000">
<ele>364.000000</ele>
<time>2009-02-15T14:48:27Z</time>
</trkpt>
<trkpt lat="49.466586000" lon="6.866970000">
<ele>365.000000</ele>
<time>2009-02-15T14:49:01Z</time>
</trkpt>
<trkpt lat="49.466844000" lon="6.866863000">
<ele>366.000000</ele>
<time>2009-02-15T14:49:27Z</time>
</trkpt>
<trkpt lat="49.467101000" lon="6.866992000">
<ele>365.000000</ele>
<time>2009-02-15T14:49:53Z</time>
</trkpt>
<trkpt lat="49.467144000" lon="6.867120000">
<ele>364.000000</ele>
<time>2009-02-15T14:49:58Z</time>
</trkpt>
<trkpt lat="49.467487000" lon="6.867657000">
<ele>363.000000</ele>
<time>2009-02-15T14:50:33Z</time>
</trkpt>
<trkpt lat="49.467702000" lon="6.868129000">
<ele>362.000000</ele>
<time>2009-02-15T14:50:59Z</time>
</trkpt>
<trkpt lat="49.467981000" lon="6.868773000">
<ele>360.000000</ele>
<time>2009-02-15T14:51:36Z</time>
</trkpt>
<trkpt lat="49.468002000" lon="6.869245000">
<ele>358.000000</ele>
<time>2009-02-15T14:51:58Z</time>
</trkpt>
<trkpt lat="49.467895000" lon="6.869760000">
<ele>357.000000</ele>
<time>2009-02-15T14:52:34Z</time>
</trkpt>
<trkpt lat="49.467766000" lon="6.870468000">
<ele>356.000000</ele>
<time>2009-02-15T14:53:13Z</time>
</trkpt>
<trkpt lat="49.467766000" lon="6.871262000">
<ele>357.000000</ele>
<time>2009-02-15T14:53:57Z</time>
</trkpt>
<trkpt lat="49.467809000" lon="6.871283000">
<ele>357.000000</ele>
<time>2009-02-15T14:54:01Z</time>
</trkpt>
<trkpt lat="49.468367000" lon="6.871583000">
<ele>355.000000</ele>
<time>2009-02-15T14:54:33Z</time>
</trkpt>
<trkpt lat="49.468367000" lon="6.871648000">
<ele>355.000000</ele>
<time>2009-02-15T14:54:35Z</time>
</trkpt>
<trkpt lat="49.468431000" lon="6.871777000">
<ele>355.000000</ele>
<time>2009-02-15T14:54:40Z</time>
</trkpt>
<trkpt lat="49.468625000" lon="6.871991000">
<ele>354.000000</ele>
<time>2009-02-15T14:54:56Z</time>
</trkpt>
<trkpt lat="49.468796000" lon="6.872334000">
<ele>353.000000</ele>
<time>2009-02-15T14:55:17Z</time>
</trkpt>
<trkpt lat="49.469182000" lon="6.872785000">
<ele>351.000000</ele>
<time>2009-02-15T14:55:50Z</time>
</trkpt>
<trkpt lat="49.469440000" lon="6.873300000">
<ele>350.000000</ele>
<time>2009-02-15T14:56:23Z</time>
</trkpt>
<trkpt lat="49.469676000" lon="6.873643000">
<ele>348.000000</ele>
<time>2009-02-15T14:56:55Z</time>
</trkpt>
<trkpt lat="49.469848000" lon="6.874008000">
<ele>347.000000</ele>
<time>2009-02-15T14:57:18Z</time>
</trkpt>
<trkpt lat="49.469955000" lon="6.874352000">
<ele>347.000000</ele>
<time>2009-02-15T14:57:40Z</time>
</trkpt>
<trkpt lat="49.469848000" lon="6.874845000">
<ele>346.000000</ele>
<time>2009-02-15T14:58:12Z</time>
</trkpt>
<trkpt lat="49.469783000" lon="6.875360000">
<ele>345.000000</ele>
<time>2009-02-15T14:58:40Z</time>
</trkpt>
<trkpt lat="49.469762000" lon="6.876004000">
<ele>345.000000</ele>
<time>2009-02-15T14:59:13Z</time>
</trkpt>
<trkpt lat="49.469697000" lon="6.876562000">
<ele>346.000000</ele>
<time>2009-02-15T14:59:42Z</time>
</trkpt>
<trkpt lat="49.469440000" lon="6.876884000">
<ele>346.000000</ele>
<time>2009-02-15T15:00:14Z</time>
</trkpt>
<trkpt lat="49.469118000" lon="6.877227000">
<ele>350.000000</ele>
<time>2009-02-15T15:00:59Z</time>
</trkpt>
<trkpt lat="49.469011000" lon="6.877635000">
<ele>351.000000</ele>
<time>2009-02-15T15:01:26Z</time>
</trkpt>
<trkpt lat="49.469054000" lon="6.878600000">
<ele>351.000000</ele>
<time>2009-02-15T15:02:15Z</time>
</trkpt>
<trkpt lat="49.469397000" lon="6.879416000">
<ele>354.000000</ele>
<time>2009-02-15T15:03:15Z</time>
</trkpt>
<trkpt lat="49.469805000" lon="6.880016000">
<ele>358.000000</ele>
<time>2009-02-15T15:04:06Z</time>
</trkpt>
<trkpt lat="49.470277000" lon="6.880875000">
<ele>361.000000</ele>
<time>2009-02-15T15:05:09Z</time>
</trkpt>
<trkpt lat="49.470298000" lon="6.880960000">
<ele>361.000000</ele>
<time>2009-02-15T15:05:13Z</time>
</trkpt>
<trkpt lat="49.470427000" lon="6.881819000">
<ele>364.000000</ele>
<time>2009-02-15T15:06:10Z</time>
</trkpt>
<trkpt lat="49.470710000" lon="6.882284000">
<ele>363.000000</ele>
</trkpt>
<trkpt lat="49.470989000" lon="6.882702000">
<ele>363.000000</ele>
</trkpt>
<trkpt lat="49.471232000" lon="6.883448000">
<ele>363.000000</ele>
</trkpt>
<trkpt lat="49.471394000" lon="6.883927000">
<ele>363.000000</ele>
</trkpt>
<trkpt lat="49.471466000" lon="6.884453000">
<ele>363.000000</ele>
</trkpt>
<trkpt lat="49.471481000" lon="6.884481000">
<ele>363.000000</ele>
</trkpt>
<trkpt lat="49.471478000" lon="6.884480000">
<ele>363.000000</ele>
<time>2009-02-15T15:08:46Z</time>
</trkpt>
<trkpt lat="49.471586000" lon="6.885080000">
<ele>364.000000</ele>
<time>2009-02-15T15:09:18Z</time>
</trkpt>
<trkpt lat="49.471607000" lon="6.885724000">
<ele>364.000000</ele>
<time>2009-02-15T15:09:54Z</time>
</trkpt>
<trkpt lat="49.471650000" lon="6.886282000">
<ele>364.000000</ele>
<time>2009-02-15T15:10:27Z</time>
</trkpt>
<trkpt lat="49.471607000" lon="6.887012000">
<ele>363.000000</ele>
<time>2009-02-15T15:11:02Z</time>
</trkpt>
<trkpt lat="49.471543000" lon="6.887591000">
<ele>361.000000</ele>
<time>2009-02-15T15:11:32Z</time>
</trkpt>
<trkpt lat="49.471521000" lon="6.887741000">
<ele>360.000000</ele>
<time>2009-02-15T15:11:39Z</time>
</trkpt>
<trkpt lat="49.471393000" lon="6.888170000">
<ele>358.000000</ele>
<time>2009-02-15T15:12:03Z</time>
</trkpt>
<trkpt lat="49.471242000" lon="6.888492000">
<ele>357.000000</ele>
<time>2009-02-15T15:12:25Z</time>
</trkpt>
<trkpt lat="49.471028000" lon="6.888771000">
<ele>354.000000</ele>
<time>2009-02-15T15:12:49Z</time>
</trkpt>
<trkpt lat="49.470663000" lon="6.889114000">
<ele>353.000000</ele>
<time>2009-02-15T15:13:19Z</time>
</trkpt>
<trkpt lat="49.470470000" lon="6.889179000">
<ele>352.000000</ele>
<time>2009-02-15T15:13:35Z</time>
</trkpt>
<trkpt lat="49.470170000" lon="6.889093000">
<ele>351.000000</ele>
<time>2009-02-15T15:14:00Z</time>
</trkpt>
<trkpt lat="49.469783000" lon="6.889071000">
<ele>350.000000</ele>
<time>2009-02-15T15:14:31Z</time>
</trkpt>
<trkpt lat="49.469483000" lon="6.889114000">
<ele>349.000000</ele>
<time>2009-02-15T15:14:56Z</time>
</trkpt>
<trkpt lat="49.469225000" lon="6.889222000">
<ele>349.000000</ele>
<time>2009-02-15T15:15:19Z</time>
</trkpt>
<trkpt lat="49.468904000" lon="6.889307000">
<ele>350.000000</ele>
<time>2009-02-15T15:15:43Z</time>
</trkpt>
<trkpt lat="49.468560000" lon="6.889393000">
<ele>348.000000</ele>
<time>2009-02-15T15:16:10Z</time>
</trkpt>
<trkpt lat="49.468238000" lon="6.889544000">
<ele>347.000000</ele>
<time>2009-02-15T15:16:35Z</time>
</trkpt>
<trkpt lat="49.467895000" lon="6.889694000">
<ele>347.000000</ele>
<time>2009-02-15T15:17:02Z</time>
</trkpt>
<trkpt lat="49.467638000" lon="6.889994000">
<ele>346.000000</ele>
<time>2009-02-15T15:17:28Z</time>
</trkpt>
<trkpt lat="49.467466000" lon="6.890144000">
<ele>346.000000</ele>
<time>2009-02-15T15:17:43Z</time>
</trkpt>
<trkpt lat="49.467208000" lon="6.890295000">
<ele>346.000000</ele>
<time>2009-02-15T15:18:06Z</time>
</trkpt>
<trkpt lat="49.466887000" lon="6.890466000">
<ele>347.000000</ele>
<time>2009-02-15T15:18:37Z</time>
</trkpt>
<trkpt lat="49.466543000" lon="6.890659000">
<ele>347.000000</ele>
<time>2009-02-15T15:19:07Z</time>
</trkpt>
<trkpt lat="49.466372000" lon="6.890852000">
<ele>346.000000</ele>
<time>2009-02-15T15:19:27Z</time>
</trkpt>
<trkpt lat="49.466007000" lon="6.891046000">
<ele>343.000000</ele>
<time>2009-02-15T15:19:59Z</time>
</trkpt>
<trkpt lat="49.465771000" lon="6.891217000">
<ele>343.000000</ele>
<time>2009-02-15T15:20:24Z</time>
</trkpt>
<trkpt lat="49.465406000" lon="6.891668000">
<ele>343.000000</ele>
<time>2009-02-15T15:21:03Z</time>
</trkpt>
<trkpt lat="49.465020000" lon="6.892269000">
<ele>343.000000</ele>
<time>2009-02-15T15:21:47Z</time>
</trkpt>
<trkpt lat="49.464591000" lon="6.892719000">
<ele>345.000000</ele>
<time>2009-02-15T15:22:21Z</time>
</trkpt>
<trkpt lat="49.464333000" lon="6.892827000">
<ele>346.000000</ele>
<time>2009-02-15T15:22:47Z</time>
</trkpt>
<trkpt lat="49.464033000" lon="6.892912000">
<ele>344.000000</ele>
<time>2009-02-15T15:23:13Z</time>
</trkpt>
<trkpt lat="49.463754000" lon="6.892827000">
<ele>343.000000</ele>
<time>2009-02-15T15:23:38Z</time>
</trkpt>
<trkpt lat="49.463496000" lon="6.892719000">
<ele>339.000000</ele>
<time>2009-02-15T15:24:00Z</time>
</trkpt>
<trkpt lat="49.463303000" lon="6.892633000">
<ele>337.000000</ele>
<time>2009-02-15T15:24:17Z</time>
</trkpt>
<trkpt lat="49.463067000" lon="6.892376000">
<ele>336.000000</ele>
<time>2009-02-15T15:24:47Z</time>
</trkpt>
<trkpt lat="49.463046000" lon="6.892312000">
<ele>336.000000</ele>
<time>2009-02-15T15:24:51Z</time>
</trkpt>
<trkpt lat="49.462852000" lon="6.891947000">
<ele>334.000000</ele>
<time>2009-02-15T15:25:18Z</time>
</trkpt>
<trkpt lat="49.462702000" lon="6.891754000">
<ele>330.000000</ele>
<time>2009-02-15T15:25:37Z</time>
</trkpt>
<trkpt lat="49.462466000" lon="6.891282000">
<ele>329.000000</ele>
<time>2009-02-15T15:26:12Z</time>
</trkpt>
<trkpt lat="49.462252000" lon="6.890895000">
<ele>328.000000</ele>
<time>2009-02-15T15:26:41Z</time>
</trkpt>
<trkpt lat="49.462252000" lon="6.890745000">
<ele>328.000000</ele>
<time>2009-02-15T15:26:51Z</time>
</trkpt>
<trkpt lat="49.462144000" lon="6.890380000">
<ele>329.000000</ele>
<time>2009-02-15T15:27:18Z</time>
</trkpt>
<trkpt lat="49.462080000" lon="6.890295000">
<ele>329.000000</ele>
<time>2009-02-15T15:27:24Z</time>
</trkpt>
<trkpt lat="49.461780000" lon="6.889780000">
<ele>327.000000</ele>
<time>2009-02-15T15:27:56Z</time>
</trkpt>
<trkpt lat="49.461672000" lon="6.889672000">
<ele>323.000000</ele>
<time>2009-02-15T15:28:07Z</time>
</trkpt>
<trkpt lat="49.461522000" lon="6.889436000">
<ele>320.000000</ele>
<time>2009-02-15T15:28:32Z</time>
</trkpt>
<trkpt lat="49.461308000" lon="6.889093000">
<ele>317.000000</ele>
<time>2009-02-15T15:28:58Z</time>
</trkpt>
<trkpt lat="49.461243000" lon="6.889029000">
<ele>314.000000</ele>
<time>2009-02-15T15:29:11Z</time>
</trkpt>
<trkpt lat="49.461114000" lon="6.888986000">
<ele>311.000000</ele>
<time>2009-02-15T15:29:22Z</time>
</trkpt>
<trkpt lat="49.461093000" lon="6.889007000">
<ele>311.000000</ele>
<time>2009-02-15T15:29:24Z</time>
</trkpt>
<trkpt lat="49.461029000" lon="6.889007000">
<ele>311.000000</ele>
<time>2009-02-15T15:29:29Z</time>
</trkpt>
<trkpt lat="49.460878000" lon="6.888728000">
<ele>308.000000</ele>
<time>2009-02-15T15:29:50Z</time>
</trkpt>
<trkpt lat="49.460857000" lon="6.888642000">
<ele>314.000000</ele>
<time>2009-02-15T15:29:55Z</time>
</trkpt>
<trkpt lat="49.460857000" lon="6.888621000">
<ele>310.000000</ele>
<time>2009-02-15T15:29:56Z</time>
</trkpt>
<trkpt lat="49.460835000" lon="6.888556000">
<ele>306.000000</ele>
<time>2009-02-15T15:30:01Z</time>
</trkpt>
<trkpt lat="49.460814000" lon="6.888535000">
<ele>311.000000</ele>
<time>2009-02-15T15:30:02Z</time>
</trkpt>
<trkpt lat="49.460793000" lon="6.888449000">
<ele>309.000000</ele>
<time>2009-02-15T15:30:08Z</time>
</trkpt>
<trkpt lat="49.460599000" lon="6.888170000">
<ele>309.000000</ele>
<time>2009-02-15T15:30:30Z</time>
</trkpt>
<trkpt lat="49.460428000" lon="6.887720000">
<ele>309.000000</ele>
<time>2009-02-15T15:30:59Z</time>
</trkpt>
<trkpt lat="49.460428000" lon="6.887591000">
<ele>309.000000</ele>
<time>2009-02-15T15:31:06Z</time>
</trkpt>
<trkpt lat="49.460406000" lon="6.887527000">
<ele>309.000000</ele>
<time>2009-02-15T15:31:10Z</time>
</trkpt>
<trkpt lat="49.460363000" lon="6.887462000">
<ele>310.000000</ele>
<time>2009-02-15T15:31:17Z</time>
</trkpt>
<trkpt lat="49.460342000" lon="6.887462000">
<ele>309.000000</ele>
<time>2009-02-15T15:31:22Z</time>
</trkpt>
<trkpt lat="49.460299000" lon="6.887441000">
<ele>310.000000</ele>
<time>2009-02-15T15:31:27Z</time>
</trkpt>
<trkpt lat="49.460256000" lon="6.887419000">
<ele>310.000000</ele>
<time>2009-02-15T15:31:32Z</time>
</trkpt>
<trkpt lat="49.460213000" lon="6.887290000">
<ele>313.000000</ele>
<time>2009-02-15T15:31:48Z</time>
</trkpt>
<trkpt lat="49.460235000" lon="6.887269000">
<ele>313.000000</ele>
<time>2009-02-15T15:31:53Z</time>
</trkpt>
<trkpt lat="49.460192000" lon="6.887333000">
<ele>310.000000</ele>
<time>2009-02-15T15:32:11Z</time>
</trkpt>
<trkpt lat="49.460149000" lon="6.887333000">
<ele>311.000000</ele>
<time>2009-02-15T15:32:16Z</time>
</trkpt>
<trkpt lat="49.459913000" lon="6.888235000">
<ele>310.000000</ele>
<time>2009-02-15T15:32:25Z</time>
</trkpt>
<trkpt lat="49.459677000" lon="6.889222000">
<ele>307.000000</ele>
<time>2009-02-15T15:32:31Z</time>
</trkpt>
<trkpt lat="49.459612000" lon="6.889458000">
<ele>306.000000</ele>
<time>2009-02-15T15:32:33Z</time>
</trkpt>
<trkpt lat="49.459527000" lon="6.889844000">
<ele>305.000000</ele>
<time>2009-02-15T15:32:38Z</time>
</trkpt>
<trkpt lat="49.459698000" lon="6.889801000">
<ele>305.000000</ele>
<time>2009-02-15T15:32:43Z</time>
</trkpt>
<trkpt lat="49.460471000" lon="6.889436000">
<ele>309.000000</ele>
<time>2009-02-15T15:32:51Z</time>
</trkpt>
<trkpt lat="49.460578000" lon="6.889436000">
<ele>309.000000</ele>
<time>2009-02-15T15:32:52Z</time>
</trkpt>
<trkpt lat="49.461114000" lon="6.889651000">
<ele>314.000000</ele>
<time>2009-02-15T15:32:56Z</time>
</trkpt>
<trkpt lat="49.461522000" lon="6.889951000">
<ele>318.000000</ele>
<time>2009-02-15T15:32:59Z</time>
</trkpt>
<trkpt lat="49.461951000" lon="6.890659000">
<ele>323.000000</ele>
<time>2009-02-15T15:33:03Z</time>
</trkpt>
<trkpt lat="49.462295000" lon="6.891217000">
<ele>327.000000</ele>
<time>2009-02-15T15:33:06Z</time>
</trkpt>
<trkpt lat="49.462616000" lon="6.891818000">
<ele>331.000000</ele>
<time>2009-02-15T15:33:09Z</time>
</trkpt>
<trkpt lat="49.462938000" lon="6.892354000">
<ele>334.000000</ele>
<time>2009-02-15T15:33:12Z</time>
</trkpt>
<trkpt lat="49.463325000" lon="6.892805000">
<ele>338.000000</ele>
<time>2009-02-15T15:33:15Z</time>
</trkpt>
<trkpt lat="49.464054000" lon="6.893127000">
<ele>342.000000</ele>
<time>2009-02-15T15:33:20Z</time>
</trkpt>
<trkpt lat="49.464226000" lon="6.893106000">
<ele>342.000000</ele>
<time>2009-02-15T15:33:21Z</time>
</trkpt>
<trkpt lat="49.464548000" lon="6.892977000">
<ele>343.000000</ele>
<time>2009-02-15T15:33:23Z</time>
</trkpt>
<trkpt lat="49.465277000" lon="6.892548000">
<ele>339.000000</ele>
<time>2009-02-15T15:33:28Z</time>
</trkpt>
<trkpt lat="49.465728000" lon="6.892269000">
<ele>335.000000</ele>
<time>2009-02-15T15:33:31Z</time>
</trkpt>
<trkpt lat="49.466393000" lon="6.892226000">
<ele>330.000000</ele>
<time>2009-02-15T15:33:35Z</time>
</trkpt>
<trkpt lat="49.466715000" lon="6.892376000">
<ele>327.000000</ele>
<time>2009-02-15T15:33:37Z</time>
</trkpt>
<trkpt lat="49.467037000" lon="6.892548000">
<ele>325.000000</ele>
<time>2009-02-15T15:33:39Z</time>
</trkpt>
<trkpt lat="49.467723000" lon="6.892548000">
<ele>321.000000</ele>
<time>2009-02-15T15:33:43Z</time>
</trkpt>
<trkpt lat="49.468539000" lon="6.892269000">
<ele>317.000000</ele>
<time>2009-02-15T15:33:48Z</time>
</trkpt>
<trkpt lat="49.469054000" lon="6.892118000">
<ele>313.000000</ele>
<time>2009-02-15T15:33:51Z</time>
</trkpt>
<trkpt lat="49.469225000" lon="6.892076000">
<ele>313.000000</ele>
<time>2009-02-15T15:33:52Z</time>
</trkpt>
<trkpt lat="49.469891000" lon="6.892140000">
<ele>307.000000</ele>
<time>2009-02-15T15:33:56Z</time>
</trkpt>
<trkpt lat="49.470534000" lon="6.892290000">
<ele>302.000000</ele>
<time>2009-02-15T15:34:00Z</time>
</trkpt>
<trkpt lat="49.471006000" lon="6.892312000">
<ele>298.000000</ele>
<time>2009-02-15T15:34:03Z</time>
</trkpt>
<trkpt lat="49.471436000" lon="6.892333000">
<ele>295.000000</ele>
<time>2009-02-15T15:34:06Z</time>
</trkpt>
<trkpt lat="49.471672000" lon="6.892376000">
<ele>294.000000</ele>
<time>2009-02-15T15:34:08Z</time>
</trkpt>
<trkpt lat="49.472208000" lon="6.892848000">
<ele>289.000000</ele>
<time>2009-02-15T15:34:13Z</time>
</trkpt>
<trkpt lat="49.472272000" lon="6.892998000">
<ele>289.000000</ele>
<time>2009-02-15T15:34:14Z</time>
</trkpt>
<trkpt lat="49.472466000" lon="6.893406000">
<ele>285.000000</ele>
<time>2009-02-15T15:34:17Z</time>
</trkpt>
<trkpt lat="49.472573000" lon="6.893663000">
<ele>283.000000</ele>
<time>2009-02-15T15:34:19Z</time>
</trkpt>
<trkpt lat="49.472637000" lon="6.894264000">
<ele>278.000000</ele>
<time>2009-02-15T15:34:23Z</time>
</trkpt>
<trkpt lat="49.472637000" lon="6.894736000">
<ele>273.000000</ele>
<time>2009-02-15T15:34:26Z</time>
</trkpt>
<trkpt lat="49.472637000" lon="6.895015000">
<ele>271.000000</ele>
<time>2009-02-15T15:34:28Z</time>
</trkpt>
<trkpt lat="49.472959000" lon="6.895444000">
<ele>266.000000</ele>
<time>2009-02-15T15:34:33Z</time>
</trkpt>
<trkpt lat="49.473174000" lon="6.895423000">
<ele>264.000000</ele>
<time>2009-02-15T15:34:35Z</time>
</trkpt>
<trkpt lat="49.473345000" lon="6.895380000">
<ele>263.000000</ele>
<time>2009-02-15T15:34:37Z</time>
</trkpt>
<trkpt lat="49.473689000" lon="6.895530000">
<ele>259.000000</ele>
<time>2009-02-15T15:34:41Z</time>
</trkpt>
<trkpt lat="49.473753000" lon="6.895638000">
<ele>259.000000</ele>
<time>2009-02-15T15:34:42Z</time>
</trkpt>
<trkpt lat="49.473882000" lon="6.895788000">
<ele>258.000000</ele>
<time>2009-02-15T15:34:44Z</time>
</trkpt>
<trkpt lat="49.474118000" lon="6.895809000">
<ele>258.000000</ele>
<time>2009-02-15T15:34:48Z</time>
</trkpt>
<trkpt lat="49.474332000" lon="6.896131000">
<ele>257.000000</ele>
<time>2009-02-15T15:34:53Z</time>
</trkpt>
<trkpt lat="49.474504000" lon="6.897140000">
<ele>261.000000</ele>
<time>2009-02-15T15:35:00Z</time>
</trkpt>
<trkpt lat="49.474525000" lon="6.897311000">
<ele>261.000000</ele>
<time>2009-02-15T15:35:01Z</time>
</trkpt>
<trkpt lat="49.474611000" lon="6.897762000">
<ele>264.000000</ele>
<time>2009-02-15T15:35:04Z</time>
</trkpt>
<trkpt lat="49.474869000" lon="6.898513000">
<ele>266.000000</ele>
<time>2009-02-15T15:35:11Z</time>
</trkpt>
<trkpt lat="49.475040000" lon="6.898599000">
<ele>269.000000</ele>
<time>2009-02-15T15:35:15Z</time>
</trkpt>
<trkpt lat="49.475148000" lon="6.898620000">
<ele>269.000000</ele>
<time>2009-02-15T15:35:17Z</time>
</trkpt>
<trkpt lat="49.475384000" lon="6.898770000">
<ele>266.000000</ele>
<time>2009-02-15T15:35:21Z</time>
</trkpt>
<trkpt lat="49.475641000" lon="6.898642000">
<ele>263.000000</ele>
<time>2009-02-15T15:35:25Z</time>
</trkpt>
<trkpt lat="49.475856000" lon="6.898448000">
<ele>258.000000</ele>
<time>2009-02-15T15:35:28Z</time>
</trkpt>
<trkpt lat="49.476349000" lon="6.897976000">
<ele>256.000000</ele>
<time>2009-02-15T15:35:36Z</time>
</trkpt>
<trkpt lat="49.477079000" lon="6.897354000">
<ele>258.000000</ele>
<time>2009-02-15T15:35:46Z</time>
</trkpt>
<trkpt lat="49.477143000" lon="6.897311000">
<ele>259.000000</ele>
<time>2009-02-15T15:35:48Z</time>
</trkpt>
<trkpt lat="49.477401000" lon="6.897075000">
<ele>260.000000</ele>
<time>2009-02-15T15:35:53Z</time>
</trkpt>
<trkpt lat="49.477572000" lon="6.896882000">
<ele>263.000000</ele>
<time>2009-02-15T15:35:57Z</time>
</trkpt>
<trkpt lat="49.477572000" lon="6.896710000">
<ele>264.000000</ele>
<time>2009-02-15T15:36:00Z</time>
</trkpt>
<trkpt lat="49.477637000" lon="6.896539000">
<ele>264.000000</ele>
<time>2009-02-15T15:36:06Z</time>
</trkpt>
<trkpt lat="49.477658000" lon="6.896539000">
<ele>265.000000</ele>
<time>2009-02-15T15:36:09Z</time>
</trkpt>
<trkpt lat="49.477744000" lon="6.896496000">
<ele>266.000000</ele>
<time>2009-02-15T15:36:31Z</time>
</trkpt>
<trkpt lat="49.477808000" lon="6.896496000">
<ele>266.000000</ele>
<time>2009-02-15T15:36:38Z</time>
</trkpt>
</trkseg>
</trk>
</gpx>
